»·PEaware :: N523JS KISN-KLGB

N523JS :: KISN-KLGB

FLIGHT INFORMATION

Flight Status: Arrived
Operator: Privately registered:
United States
More flights under this callsign
Pilot: Anonymous 2940 (2940)
Aircraft: AIRBUS A321
(A321)
More flights by this aircraft type
Origin: KISN Sloulin Intl
United States
Destination: KLGB Long Beach
United States
More flights between these airports :: More routes between these airports
Route: LIMBO V64 SMO125 SMO SMO311 SILEX
File this flight plan on PilotEdge
Remarks:
Altitude:
(Current/Filed)
38,000ft
Speed:
(Current/Filed)
460kts
Departed: 24-Aug-16 07:12 PM
Arrived: 24-Aug-16 08:13 PM
Distance/Time
Traveled:
1079nm/1:00
Distance/Time
To Go:
Arrived

Flight Plot

Page will automatically refresh every two minutes.


Map Options




Map Legend


Flown Route
Filed Route
Departure Airport
Arrival Airport
Navaid (VOR, NDB)
Fix

Horizontal Profiles

Position Reports

Time Latitude Longitude Heading Altitude Ground
Speed
24-Aug-16 19:09 38.319234 -113.046376 216 38202ft 470kts
24-Aug-16 19:10 38.208469 -113.136859 216 38207ft 471kts
24-Aug-16 19:11 38.138398 -113.193751 216 38208ft 471kts
24-Aug-16 19:12 38.027559 -113.283312 216 38201ft 471kts
24-Aug-16 19:13 37.916538 -113.372675 216 38201ft 472kts
24-Aug-16 19:14 37.805754 -113.461529 216 38192ft 472kts
24-Aug-16 19:15 37.694471 -113.550460 216 38183ft 472kts
24-Aug-16 19:16 37.583047 -113.639182 216 38181ft 472kts
24-Aug-16 19:17 37.471347 -113.727831 216 38152ft 475kts
24-Aug-16 19:18 37.358648 -113.816887 216 38127ft 480kts
24-Aug-16 19:19 37.244686 -113.906692 216 38114ft 484kts
24-Aug-16 19:20 37.130114 -113.996604 216 38102ft 485kts
24-Aug-16 19:21 37.015682 -114.086080 216 38110ft 486kts
24-Aug-16 19:22 36.900652 -114.175713 216 38081ft 487kts
24-Aug-16 19:23 36.785350 -114.265227 216 38062ft 487kts
24-Aug-16 19:24 36.669465 -114.354208 216 38028ft 488kts
24-Aug-16 19:25 36.553155 -114.442851 216 37965ft 490kts
24-Aug-16 19:26 36.436036 -114.531903 216 37953ft 494kts
24-Aug-16 19:27 36.318689 -114.620802 216 37952ft 495kts
24-Aug-16 19:28 36.200703 -114.709859 216 37954ft 496kts
24-Aug-16 19:29 36.082319 -114.798853 217 37919ft 498kts
24-Aug-16 19:30 35.970966 -114.896909 235 37923ft 479kts
24-Aug-16 19:31 35.881934 -115.019795 234 37924ft 479kts
24-Aug-16 19:32 35.792168 -115.141779 234 37930ft 479kts
24-Aug-16 19:33 35.702322 -115.263634 234 37929ft 480kts
24-Aug-16 19:34 35.612306 -115.385302 234 37928ft 480kts
24-Aug-16 19:35 35.522086 -115.506207 235 37928ft 482kts
24-Aug-16 19:36 35.430938 -115.627989 234 37941ft 484kts
24-Aug-16 19:37 35.339391 -115.749874 234 37957ft 485kts
24-Aug-16 19:38 35.247605 -115.871624 235 37977ft 486kts
24-Aug-16 19:39 35.153491 -115.996238 234 36247ft 509kts
24-Aug-16 19:40 35.056655 -116.123625 233 33785ft 509kts
24-Aug-16 19:41 34.966166 -116.242071 232 31293ft 458kts
24-Aug-16 19:42 34.880107 -116.354819 231 29000ft 447kts
24-Aug-16 19:43 34.796406 -116.463915 229 26885ft 432kts
24-Aug-16 19:44 34.712979 -116.566652 227 24781ft 418kts
24-Aug-16 19:45 34.632591 -116.664986 227 23997ft 403kts
24-Aug-16 19:46 34.553698 -116.761817 227 24003ft 402kts
24-Aug-16 19:47 34.487489 -116.842822 228 22576ft 405kts
24-Aug-16 19:48 34.396799 -116.953398 226 18996ft 384kts
24-Aug-16 19:49 34.335653 -117.028487 226 16520ft 367kts
24-Aug-16 19:50 34.251024 -117.091146 201 14027ft 353kts
24-Aug-16 19:51 34.160548 -117.130240 199 13100ft 339kts
24-Aug-16 19:52 34.071477 -117.167891 199 13096ft 338kts
24-Aug-16 19:53 33.985798 -117.205872 210 11050ft 306kts
24-Aug-16 19:54 33.939687 -117.281088 233 8480ft 267kts
24-Aug-16 19:55 33.894540 -117.343970 227 8086ft 236kts
24-Aug-16 19:56 33.851275 -117.401123 227 8086ft 225kts
24-Aug-16 19:57 33.810761 -117.456793 230 8038ft 218kts
24-Aug-16 19:58 33.788180 -117.524770 250 8035ft 218kts
24-Aug-16 19:59 33.769390 -117.590995 250 8013ft 189kts
24-Aug-16 20:00 33.753563 -117.650670 252 7107ft 184kts
24-Aug-16 20:01 33.739086 -117.706952 252 6025ft 165kts
24-Aug-16 20:02 33.724816 -117.761615 252 6014ft 175kts
24-Aug-16 20:03 33.709596 -117.819950 252 4866ft 198kts
24-Aug-16 20:04 33.692927 -117.883398 252 3007ft 176kts
24-Aug-16 20:05 33.678683 -117.936160 252 2996ft 163kts
24-Aug-16 20:06 33.677608 -117.986762 311 3045ft 170kts
24-Aug-16 20:07 33.713062 -118.023818 313 2991ft 164kts
24-Aug-16 20:08 33.745922 -118.064576 313 1649ft 175kts
24-Aug-16 20:09 33.777621 -118.102852 314 1014ft 157kts
24-Aug-16 20:10 33.807968 -118.139553 314 133ft 155kts
24-Aug-16 20:11 33.824046 -118.158800 317 69ft 40kts
24-Aug-16 20:12 33.824685 -118.161063 249 69ft 6kts
24-Aug-16 20:13 33.823022 -118.159139 132 69ft 34kts
24-Aug-16 20:14 33.821985 -118.152712 84 69ft 26kts
24-Aug-16 20:15 33.820519 -118.146812 161 69ft 18kts
24-Aug-16 20:16 33.819307 -118.145342 190 69ft 0kts
24-Aug-16 20:17 33.819307 -118.145342 190 69ft 0kts

Navigation Log

Ident Type
Flight plan parsing failed, navigation log unavailable